createdAt,value
2018-07-07T00:00:36.939Z,996.02
2018-07-07T00:01:36.956Z,996.01
2018-07-07T00:02:36.943Z,996.04
2018-07-07T00:03:36.939Z,996.02
2018-07-07T00:04:36.943Z,995.98
2018-07-07T00:05:36.944Z,995.97
2018-07-07T00:06:36.943Z,995.99
2018-07-07T00:07:36.951Z,996.03
2018-07-07T00:08:36.944Z,996.02
2018-07-07T00:09:36.944Z,995.99
2018-07-07T00:10:36.943Z,995.99
2018-07-07T00:11:36.945Z,996.05
2018-07-07T00:12:36.945Z,996.01
2018-07-07T00:13:36.947Z,996.06
2018-07-07T00:14:36.948Z,996.03
2018-07-07T00:15:36.951Z,996.06
2018-07-07T00:16:36.950Z,995.98
2018-07-07T00:17:36.948Z,996.05
2018-07-07T00:18:36.951Z,996.02
2018-07-07T00:19:36.950Z,996.01
2018-07-07T00:20:36.952Z,996.04
2018-07-07T00:21:36.952Z,996.04
2018-07-07T00:22:36.952Z,996.02
2018-07-07T00:23:36.955Z,996.04
2018-07-07T00:24:36.954Z,996.02
2018-07-07T00:25:36.955Z,995.97
2018-07-07T00:26:36.957Z,996.01
2018-07-07T00:27:37.006Z,995.99
2018-07-07T00:28:36.956Z,996
2018-07-07T00:29:36.956Z,995.97
2018-07-07T00:30:36.964Z,995.99
2018-07-07T00:31:36.958Z,996.02
2018-07-07T00:32:36.963Z,995.96
2018-07-07T00:33:36.960Z,996.02
2018-07-07T00:34:36.957Z,996.01
2018-07-07T00:35:36.961Z,996
2018-07-07T00:36:36.965Z,996.01
2018-07-07T00:37:36.957Z,996.03
2018-07-07T00:38:36.968Z,995.98
2018-07-07T00:39:36.964Z,996.03
2018-07-07T00:40:36.961Z,996
2018-07-07T00:41:36.962Z,996.02
2018-07-07T00:42:39.412Z,996.02
2018-07-07T00:43:36.960Z,995.99
2018-07-07T00:44:36.962Z,996.02
2018-07-07T00:45:36.962Z,996.02
2018-07-07T00:46:36.966Z,996.04
2018-07-07T00:47:36.966Z,996.03
2018-07-07T00:48:36.965Z,996.05
2018-07-07T00:49:36.964Z,996.04
2018-07-07T00:50:36.966Z,996.03
2018-07-07T00:51:36.967Z,996.06
2018-07-07T00:52:37.002Z,996.06
2018-07-07T00:53:36.968Z,996.08
2018-07-07T00:54:36.968Z,996.06
2018-07-07T00:55:36.969Z,996.05
2018-07-07T00:56:36.966Z,996.08
2018-07-07T00:57:36.968Z,996.1
2018-07-07T00:58:36.969Z,996.08
2018-07-07T00:59:36.966Z,996.06
2018-07-07T01:00:36.970Z,996.12
2018-07-07T01:01:36.971Z,996.1
2018-07-07T01:02:36.970Z,996.12
2018-07-07T01:03:36.969Z,996.12
2018-07-07T01:04:36.978Z,996.1
2018-07-07T01:05:36.969Z,996.1
2018-07-07T01:06:36.979Z,996.11
2018-07-07T01:07:36.973Z,996.11
2018-07-07T01:08:36.972Z,996.12
2018-07-07T01:09:36.971Z,996.12
2018-07-07T01:10:36.973Z,996.1
2018-07-07T01:11:36.972Z,996.13
2018-07-07T01:12:36.976Z,996.11
2018-07-07T01:13:36.973Z,996.11
2018-07-07T01:14:36.978Z,996.14
2018-07-07T01:15:36.974Z,996.16
2018-07-07T01:16:37.007Z,996.16
2018-07-07T01:17:36.977Z,996.16
2018-07-07T01:18:36.976Z,996.19
2018-07-07T01:19:36.974Z,996.18
2018-07-07T01:20:36.976Z,996.21
2018-07-07T01:21:36.977Z,996.2
2018-07-07T01:22:36.975Z,996.2
2018-07-07T01:23:36.980Z,996.22
2018-07-07T01:24:36.974Z,996.21
2018-07-07T01:25:36.976Z,996.22
2018-07-07T01:26:36.977Z,996.2
2018-07-07T01:27:36.986Z,996.24
2018-07-07T01:28:36.978Z,996.23
2018-07-07T01:29:36.977Z,996.23
2018-07-07T01:30:36.976Z,996.23
2018-07-07T01:31:36.986Z,996.24
2018-07-07T01:32:36.980Z,996.21
2018-07-07T01:33:36.982Z,996.22
2018-07-07T01:34:36.984Z,996.25
2018-07-07T01:35:36.978Z,996.27
2018-07-07T01:36:36.979Z,996.26
2018-07-07T01:37:36.984Z,996.26
2018-07-07T01:38:36.978Z,996.22
2018-07-07T01:39:36.986Z,996.25
2018-07-07T01:40:36.979Z,996.23
2018-07-07T01:41:36.980Z,996.2
2018-07-07T01:42:36.980Z,996.23
2018-07-07T01:43:36.984Z,996.22
2018-07-07T01:44:36.983Z,996.23
2018-07-07T01:45:36.982Z,996.22
2018-07-07T01:46:36.979Z,996.19
2018-07-07T01:47:36.985Z,996.25
2018-07-07T01:48:37.061Z,996.23
2018-07-07T01:49:36.987Z,996.22
2018-07-07T01:50:36.982Z,996.23
2018-07-07T01:51:36.991Z,996.24
2018-07-07T01:52:36.984Z,996.23
2018-07-07T01:53:36.986Z,996.29
2018-07-07T01:54:36.982Z,996.24
2018-07-07T01:55:36.985Z,996.26
2018-07-07T01:56:36.989Z,996.25
2018-07-07T01:57:36.981Z,996.25
2018-07-07T01:58:36.986Z,996.22
2018-07-07T01:59:36.979Z,996.24
2018-07-07T02:00:37.100Z,996.23
2018-07-07T02:01:36.978Z,996.26
2018-07-07T02:02:36.980Z,996.2
2018-07-07T02:03:36.989Z,996.18
2018-07-07T02:04:36.979Z,996.19
2018-07-07T02:05:37.070Z,996.19
2018-07-07T02:06:36.979Z,996.2
2018-07-07T02:07:36.978Z,996.19
2018-07-07T02:08:36.978Z,996.23
2018-07-07T02:09:36.980Z,996.25
2018-07-07T02:10:36.977Z,996.24
2018-07-07T02:11:36.977Z,996.28
2018-07-07T02:12:36.978Z,996.24
2018-07-07T02:13:36.977Z,996.25
2018-07-07T02:14:36.976Z,996.26
2018-07-07T02:15:36.986Z,996.27
2018-07-07T02:16:36.978Z,996.28
2018-07-07T02:17:36.977Z,996.27
2018-07-07T02:18:36.974Z,996.25
2018-07-07T02:19:36.979Z,996.33
2018-07-07T02:20:36.978Z,996.32
2018-07-07T02:21:36.979Z,996.31
2018-07-07T02:22:36.975Z,996.32
2018-07-07T02:23:36.979Z,996.35
2018-07-07T02:24:36.976Z,996.38
2018-07-07T02:25:36.979Z,996.36
2018-07-07T02:26:36.994Z,996.38
2018-07-07T02:27:36.974Z,996.38
2018-07-07T02:28:36.975Z,996.34
2018-07-07T02:29:36.978Z,996.36
2018-07-07T02:30:36.976Z,996.36
2018-07-07T02:31:36.973Z,996.38
2018-07-07T02:32:36.976Z,996.37
2018-07-07T02:33:36.978Z,996.38
2018-07-07T02:34:36.973Z,996.38
2018-07-07T02:35:36.982Z,996.41
2018-07-07T02:36:36.978Z,996.4
2018-07-07T02:37:36.974Z,996.42
2018-07-07T02:38:36.975Z,996.42
2018-07-07T02:39:36.973Z,996.47
2018-07-07T02:40:36.976Z,996.45
2018-07-07T02:41:36.979Z,996.48
2018-07-07T02:42:36.974Z,996.46
2018-07-07T02:43:36.978Z,996.51
2018-07-07T02:44:36.972Z,996.49
2018-07-07T02:45:36.983Z,996.47
2018-07-07T02:46:36.974Z,996.45
2018-07-07T02:47:36.970Z,996.48
2018-07-07T02:48:36.998Z,996.48
2018-07-07T02:49:36.974Z,996.45
2018-07-07T02:50:36.975Z,996.46
2018-07-07T02:51:36.975Z,996.45
2018-07-07T02:52:36.973Z,996.44
2018-07-07T02:53:36.973Z,996.42
2018-07-07T02:54:36.976Z,996.45
2018-07-07T02:55:36.981Z,996.42
2018-07-07T02:56:36.971Z,996.45
2018-07-07T02:57:36.982Z,996.43
2018-07-07T02:58:36.985Z,996.44
2018-07-07T02:59:37.010Z,996.49
2018-07-07T03:00:36.974Z,996.48
2018-07-07T03:01:36.974Z,996.48
2018-07-07T03:02:36.979Z,996.5
2018-07-07T03:03:36.972Z,996.51
2018-07-07T03:04:36.980Z,996.52
2018-07-07T03:05:36.974Z,996.5
2018-07-07T03:06:36.973Z,996.53
2018-07-07T03:07:36.979Z,996.57
2018-07-07T03:08:36.986Z,996.51
2018-07-07T03:09:36.970Z,996.53
2018-07-07T03:10:36.971Z,996.54
2018-07-07T03:11:36.968Z,996.56
2018-07-07T03:12:36.969Z,996.58
2018-07-07T03:13:36.966Z,996.56
2018-07-07T03:14:36.968Z,996.58
2018-07-07T03:15:36.979Z,996.55
2018-07-07T03:16:36.967Z,996.57
2018-07-07T03:17:36.975Z,996.54
2018-07-07T03:18:36.969Z,996.59
2018-07-07T03:19:36.968Z,996.6
2018-07-07T03:20:36.969Z,996.59
2018-07-07T03:21:36.969Z,996.61
2018-07-07T03:22:36.971Z,996.61
2018-07-07T03:23:36.975Z,996.59
2018-07-07T03:24:36.968Z,996.59
2018-07-07T03:25:36.970Z,996.57
2018-07-07T03:26:36.971Z,996.59
2018-07-07T03:27:36.968Z,996.56
2018-07-07T03:28:36.969Z,996.61
2018-07-07T03:29:36.966Z,996.62
2018-07-07T03:30:36.966Z,996.59
2018-07-07T03:31:36.974Z,996.63
2018-07-07T03:32:36.966Z,996.67
2018-07-07T03:33:36.976Z,996.66
2018-07-07T03:34:36.975Z,996.65
2018-07-07T03:35:36.965Z,996.7
2018-07-07T03:36:36.967Z,996.7
2018-07-07T03:37:36.965Z,996.72
2018-07-07T03:38:36.965Z,996.69
2018-07-07T03:39:36.971Z,996.72
2018-07-07T03:40:36.965Z,996.73
2018-07-07T03:41:36.968Z,996.73
2018-07-07T03:42:36.968Z,996.73
2018-07-07T03:43:36.968Z,996.76
2018-07-07T03:44:36.970Z,996.75
2018-07-07T03:45:36.968Z,996.75
2018-07-07T03:46:36.969Z,996.79
2018-07-07T03:47:36.970Z,996.79
2018-07-07T03:48:36.965Z,996.74
2018-07-07T03:49:36.963Z,996.75
2018-07-07T03:50:36.964Z,996.72
2018-07-07T03:51:36.965Z,996.76
2018-07-07T03:52:36.966Z,996.78
2018-07-07T03:53:36.966Z,996.75
2018-07-07T03:54:36.964Z,996.72
2018-07-07T03:55:36.973Z,996.75
2018-07-07T03:56:36.964Z,996.75
2018-07-07T03:57:36.968Z,996.74
2018-07-07T03:58:36.973Z,996.75
2018-07-07T03:59:36.968Z,996.78
2018-07-07T04:00:36.967Z,996.84
2018-07-07T04:01:36.972Z,996.85
2018-07-07T04:02:36.967Z,996.8
2018-07-07T04:03:37.771Z,996.84
2018-07-07T04:04:36.968Z,996.81
2018-07-07T04:05:36.977Z,996.82
2018-07-07T04:06:36.990Z,996.85
2018-07-07T04:07:36.996Z,996.84
2018-07-07T04:08:36.972Z,996.88
2018-07-07T04:09:36.968Z,996.91
2018-07-07T04:10:36.970Z,996.88
2018-07-07T04:11:37.000Z,996.88
2018-07-07T04:12:36.979Z,996.9
2018-07-07T04:13:36.973Z,996.93
2018-07-07T04:14:36.973Z,996.91
2018-07-07T04:15:36.974Z,996.92
2018-07-07T04:16:36.973Z,996.86
2018-07-07T04:17:36.973Z,996.9
2018-07-07T04:18:36.974Z,996.92
2018-07-07T04:19:36.975Z,996.9
2018-07-07T04:20:36.979Z,996.88
2018-07-07T04:21:36.994Z,996.9
2018-07-07T04:22:36.990Z,996.88
2018-07-07T04:23:36.988Z,996.89
2018-07-07T04:24:36.989Z,996.87
2018-07-07T04:25:36.996Z,996.88
2018-07-07T04:26:36.991Z,996.91
2018-07-07T04:27:36.992Z,996.74
2018-07-07T04:28:36.997Z,996.77
2018-07-07T04:29:36.995Z,996.88
2018-07-07T04:30:37.064Z,996.85
2018-07-07T04:31:36.999Z,996.7
2018-07-07T04:32:37.005Z,996.75
2018-07-07T04:33:37.006Z,996.71
2018-07-07T04:34:37.018Z,996.71
2018-07-07T04:35:37.009Z,996.73
2018-07-07T04:36:37.026Z,996.68
2018-07-07T04:37:37.024Z,996.79
2018-07-07T04:38:37.019Z,996.84
2018-07-07T04:39:37.018Z,996.82
2018-07-07T04:40:37.034Z,996.75
2018-07-07T04:41:37.025Z,996.69
2018-07-07T04:42:37.028Z,996.7
2018-07-07T04:43:37.026Z,996.69
2018-07-07T04:44:37.028Z,996.81
2018-07-07T04:45:37.035Z,996.75
2018-07-07T04:46:37.032Z,996.72
2018-07-07T04:47:37.034Z,996.71
2018-07-07T04:48:37.036Z,996.86
2018-07-07T04:49:37.048Z,996.78
2018-07-07T04:50:37.041Z,996.91
2018-07-07T04:51:37.043Z,996.93
2018-07-07T04:52:37.043Z,996.92
2018-07-07T04:53:37.051Z,996.84
2018-07-07T04:54:37.053Z,996.92
2018-07-07T04:55:37.048Z,996.88
2018-07-07T04:56:37.057Z,996.85
2018-07-07T04:57:37.054Z,996.83
2018-07-07T04:58:37.056Z,996.82
2018-07-07T04:59:37.067Z,996.92
2018-07-07T05:00:37.061Z,996.89
2018-07-07T05:01:37.067Z,996.92
2018-07-07T05:02:37.070Z,996.89
2018-07-07T05:03:37.071Z,996.9
2018-07-07T05:04:37.243Z,996.84
2018-07-07T05:05:37.074Z,996.98
2018-07-07T05:06:37.095Z,997.01
2018-07-07T05:07:37.078Z,996.98
2018-07-07T05:08:37.082Z,996.95
2018-07-07T05:09:37.085Z,996.97
2018-07-07T05:10:37.092Z,996.98
2018-07-07T05:11:37.106Z,996.93
2018-07-07T05:12:37.108Z,996.83
2018-07-07T05:13:37.125Z,996.85
2018-07-07T05:14:37.101Z,996.85
2018-07-07T05:15:37.145Z,996.82
2018-07-07T05:16:37.107Z,996.88
2018-07-07T05:17:37.110Z,996.82
2018-07-07T05:18:37.113Z,996.77
2018-07-07T05:19:37.121Z,996.93
2018-07-07T05:20:37.122Z,996.89
2018-07-07T05:21:37.132Z,996.95
2018-07-07T05:22:37.131Z,996.94
2018-07-07T05:23:37.132Z,996.84
2018-07-07T05:24:37.136Z,996.8
2018-07-07T05:25:37.147Z,996.86
2018-07-07T05:26:37.144Z,996.79
2018-07-07T05:27:37.146Z,996.78
2018-07-07T05:28:37.149Z,996.77
2018-07-07T05:29:37.154Z,996.78
2018-07-07T05:30:37.165Z,996.81
2018-07-07T05:31:37.161Z,996.92
2018-07-07T05:32:37.164Z,997.01
2018-07-07T05:33:37.173Z,996.96
2018-07-07T05:34:37.174Z,996.89
2018-07-07T05:35:37.178Z,996.98
2018-07-07T05:36:37.179Z,996.98
2018-07-07T05:37:37.185Z,997
2018-07-07T05:38:37.183Z,997.01
2018-07-07T05:39:37.188Z,997.03
2018-07-07T05:40:37.194Z,996.97
2018-07-07T05:41:37.205Z,996.86
2018-07-07T05:42:37.207Z,997.04
2018-07-07T05:43:37.229Z,997.06
2018-07-07T05:44:37.214Z,997.06
2018-07-07T05:45:37.225Z,996.99
2018-07-07T05:46:37.227Z,997.04
2018-07-07T05:47:37.229Z,996.85
2018-07-07T05:48:37.301Z,996.87
2018-07-07T05:49:37.239Z,996.83
2018-07-07T05:50:37.244Z,996.84
2018-07-07T05:51:37.256Z,996.87
2018-07-07T05:52:37.255Z,997.01
2018-07-07T05:53:37.256Z,996.97
2018-07-07T05:54:37.273Z,996.96
2018-07-07T05:55:37.277Z,996.89
2018-07-07T05:56:37.274Z,996.83
2018-07-07T05:57:37.292Z,996.96
2018-07-07T05:58:37.281Z,996.98
2018-07-07T05:59:37.285Z,996.99
2018-07-07T06:00:37.295Z,997.03
2018-07-07T06:01:37.295Z,996.99
2018-07-07T06:02:37.299Z,997.01
2018-07-07T06:03:37.306Z,997.04
2018-07-07T06:04:37.309Z,996.96
2018-07-07T06:05:37.317Z,996.96
2018-07-07T06:06:37.323Z,996.95
2018-07-07T06:07:37.348Z,996.96
2018-07-07T06:08:37.335Z,996.93
2018-07-07T06:09:37.341Z,996.99
2018-07-07T06:10:37.352Z,996.95
2018-07-07T06:11:37.350Z,996.96
2018-07-07T06:12:37.358Z,996.92
2018-07-07T06:13:37.364Z,996.95
2018-07-07T06:14:37.371Z,996.87
2018-07-07T06:24:02.914Z,997
2018-07-07T06:25:02.935Z,996.93
2018-07-07T06:26:02.924Z,996.92
2018-07-07T06:27:02.922Z,996.93
2018-07-07T06:28:02.924Z,996.93
2018-07-07T06:29:02.930Z,996.89
2018-07-07T06:30:02.936Z,996.87
2018-07-07T06:31:02.945Z,996.91
2018-07-07T06:32:02.945Z,996.9
2018-07-07T06:33:02.948Z,996.9
2018-07-07T06:34:02.947Z,996.91
2018-07-07T06:35:02.952Z,997
2018-07-07T06:36:02.956Z,997.01
2018-07-07T06:37:02.962Z,997.02
2018-07-07T06:38:02.963Z,997.06
2018-07-07T06:39:02.971Z,997.07
2018-07-07T06:40:02.982Z,997.06
2018-07-07T06:41:02.983Z,997.09
2018-07-07T06:42:02.986Z,997.08
2018-07-07T06:43:02.984Z,997.19
2018-07-07T06:44:02.988Z,997.17
2018-07-07T06:45:03.042Z,997.13
2018-07-07T06:46:02.999Z,997.09
2018-07-07T06:47:03.002Z,997.16
2018-07-07T06:48:03.008Z,997.12
2018-07-07T06:49:03.010Z,997.13
2018-07-07T06:50:03.037Z,997.07
2018-07-07T06:51:03.018Z,997.11
2018-07-07T06:52:03.024Z,997.11
2018-07-07T06:53:03.026Z,997.23
2018-07-07T06:54:03.147Z,997.21
2018-07-07T06:55:03.039Z,997.12
2018-07-07T06:56:03.056Z,997.08
2018-07-07T06:57:03.056Z,997.12
2018-07-07T06:58:03.062Z,997.19
2018-07-07T06:59:03.107Z,997.24
2018-07-07T07:00:03.264Z,997.24
2018-07-07T07:01:03.124Z,997.18
2018-07-07T07:02:03.074Z,997.14
2018-07-07T07:03:03.089Z,997.16
2018-07-07T07:04:03.083Z,997.17
2018-07-07T07:05:03.090Z,997.1
2018-07-07T07:06:03.104Z,997.09
2018-07-07T07:07:03.104Z,997.15
2018-07-07T07:08:03.105Z,997.13
2018-07-07T07:09:03.113Z,997.12
2018-07-07T07:10:03.120Z,997.09
2018-07-07T07:11:03.125Z,997.16
2018-07-07T07:12:03.282Z,997.13
2018-07-07T07:13:03.152Z,997.16
2018-07-07T07:14:03.196Z,997.14
2018-07-07T07:15:03.156Z,997.14
2018-07-07T07:16:03.159Z,997.1
2018-07-07T07:17:03.163Z,997.02
2018-07-07T07:18:03.170Z,997.04
2018-07-07T07:19:03.175Z,997.05
2018-07-07T07:20:03.248Z,997.04
2018-07-07T07:21:03.189Z,997.08
2018-07-07T07:22:03.215Z,997.02
2018-07-07T07:23:03.212Z,997.03
2018-07-07T07:24:03.210Z,997.01
2018-07-07T07:25:03.216Z,997.02
2018-07-07T07:26:03.256Z,997.04
2018-07-07T07:27:03.230Z,997.06
2018-07-07T07:28:03.238Z,997
2018-07-07T07:29:03.293Z,996.98
2018-07-07T07:30:03.252Z,997.07
2018-07-07T07:31:03.259Z,997.02
2018-07-07T07:32:03.267Z,996.99
2018-07-07T07:33:03.323Z,997.04
2018-07-07T07:34:03.282Z,997.03
2018-07-07T07:35:03.289Z,997.02
2018-07-07T07:36:03.295Z,996.98
2018-07-07T07:37:03.305Z,997
2018-07-07T07:38:03.310Z,997
2018-07-07T07:39:03.322Z,996.93
2018-07-07T07:40:03.325Z,996.94
2018-07-07T07:41:03.336Z,996.97
2018-07-07T07:42:03.344Z,996.95
2018-07-07T07:43:03.350Z,996.95
2018-07-07T07:44:03.408Z,996.95
2018-07-07T07:45:03.368Z,996.94
2018-07-07T07:46:03.374Z,996.94
2018-07-07T07:47:03.382Z,996.88
2018-07-07T07:48:03.389Z,996.87
2018-07-07T07:49:03.401Z,996.87
2018-07-07T07:50:03.405Z,996.82
2018-07-07T07:51:03.409Z,996.8
2018-07-07T07:52:03.416Z,996.83
2018-07-07T07:53:03.424Z,996.77
2018-07-07T07:54:03.435Z,996.79
2018-07-07T07:55:03.443Z,996.8
2018-07-07T07:56:03.450Z,996.79
2018-07-07T07:57:03.463Z,996.81
2018-07-07T07:58:03.465Z,996.79
2018-07-07T07:59:03.527Z,996.78
2018-07-07T08:00:03.479Z,996.76
2018-07-07T08:01:03.488Z,996.82
2018-07-07T08:02:03.494Z,996.78
2018-07-07T08:03:03.506Z,996.77
2018-07-07T08:04:03.510Z,996.77
2018-07-07T08:05:03.521Z,996.77
2018-07-07T08:06:03.526Z,996.76
2018-07-07T08:07:03.540Z,996.78
2018-07-07T08:08:03.542Z,996.8
2018-07-07T08:09:03.550Z,996.74
2018-07-07T08:10:03.564Z,996.75
2018-07-07T08:11:03.576Z,996.74
2018-07-07T08:12:03.578Z,996.76
2018-07-07T08:13:03.586Z,996.73
2018-07-07T08:14:03.710Z,996.74
2018-07-07T08:15:03.604Z,996.74
2018-07-07T08:16:03.623Z,996.75
2018-07-07T08:17:03.617Z,996.74
2018-07-07T08:18:03.628Z,996.7
2018-07-07T08:19:03.635Z,996.73
2018-07-07T08:20:03.653Z,996.7
2018-07-07T08:21:03.671Z,996.7
2018-07-07T08:22:03.656Z,996.74
2018-07-07T08:23:03.667Z,996.7
2018-07-07T08:24:03.688Z,996.68
2018-07-07T08:25:03.695Z,996.71
2018-07-07T08:26:03.693Z,996.7
2018-07-07T08:27:03.707Z,996.71
2018-07-07T08:28:03.718Z,996.71
2018-07-07T08:29:03.773Z,996.74
2018-07-07T08:30:03.738Z,996.71
2018-07-07T08:31:03.745Z,996.7
2018-07-07T08:32:03.741Z,996.74
2018-07-07T08:33:03.777Z,996.76
2018-07-07T08:34:03.756Z,996.77
2018-07-07T08:35:03.765Z,996.73
2018-07-07T08:36:03.778Z,996.72
2018-07-07T08:37:03.777Z,996.72
2018-07-07T08:38:03.786Z,996.71
2018-07-07T08:39:03.794Z,996.71
2018-07-07T08:40:03.806Z,996.72
2018-07-07T08:41:03.820Z,996.71
2018-07-07T08:42:03.840Z,996.72
2018-07-07T08:43:03.825Z,996.72
2018-07-07T08:44:03.882Z,996.73
2018-07-07T08:45:03.841Z,996.76
2018-07-07T08:46:03.849Z,996.73
2018-07-07T08:47:03.853Z,996.75
2018-07-07T08:48:03.863Z,996.7
2018-07-07T08:49:03.870Z,996.71
2018-07-07T08:50:03.891Z,996.67
2018-07-07T08:51:03.889Z,996.71
2018-07-07T08:52:03.892Z,996.68
2018-07-07T08:53:03.898Z,996.67
2018-07-07T08:54:03.904Z,996.68
2018-07-07T08:55:03.914Z,996.69
2018-07-07T08:56:03.924Z,996.67
2018-07-07T08:57:03.929Z,996.69
2018-07-07T08:58:03.934Z,996.63
2018-07-07T08:59:03.943Z,996.65
2018-07-07T09:00:03.951Z,996.62
2018-07-07T09:01:03.962Z,996.63
2018-07-07T09:02:03.979Z,996.64
2018-07-07T09:03:03.972Z,996.57
2018-07-07T09:04:03.990Z,996.61
2018-07-07T09:05:04.049Z,996.63
2018-07-07T09:06:04.002Z,996.63
2018-07-07T09:07:04.001Z,996.62
2018-07-07T09:08:04.010Z,996.61
2018-07-07T09:09:04.020Z,996.64
2018-07-07T09:10:04.024Z,996.61
2018-07-07T09:11:04.034Z,996.63
2018-07-07T09:12:04.036Z,996.63
2018-07-07T09:13:04.054Z,996.61
2018-07-07T09:14:04.055Z,996.63
2018-07-07T09:15:04.063Z,996.62
2018-07-07T09:16:04.075Z,996.61
2018-07-07T09:17:04.072Z,996.63
2018-07-07T09:18:04.079Z,996.57
2018-07-07T09:19:04.083Z,996.63
2018-07-07T09:20:04.105Z,996.64
2018-07-07T09:21:04.108Z,996.58
2018-07-07T09:22:04.137Z,996.65
2018-07-07T09:23:04.116Z,996.64
2018-07-07T09:24:04.118Z,996.65
2018-07-07T09:25:04.126Z,996.67
2018-07-07T09:26:04.130Z,996.71
2018-07-07T09:27:04.141Z,996.77
2018-07-07T09:28:04.146Z,996.78
2018-07-07T09:29:04.149Z,996.78
2018-07-07T09:30:04.165Z,996.78
2018-07-07T09:31:04.203Z,996.71
2018-07-07T09:32:04.171Z,996.65
2018-07-07T09:33:04.176Z,996.6
2018-07-07T09:34:04.181Z,996.58
2018-07-07T09:35:04.186Z,996.62
2018-07-07T09:36:04.194Z,996.57
2018-07-07T09:37:04.201Z,996.56
2018-07-07T09:38:04.208Z,996.55
2018-07-07T09:39:04.213Z,996.58
2018-07-07T09:40:04.221Z,996.6
2018-07-07T09:41:04.223Z,996.65
2018-07-07T09:42:04.230Z,996.65
2018-07-07T09:43:04.237Z,996.56
2018-07-07T09:44:04.298Z,996.62
2018-07-07T09:45:04.249Z,996.57
2018-07-07T09:46:04.253Z,996.57
2018-07-07T09:47:04.265Z,996.6
2018-07-07T09:48:04.269Z,996.59
2018-07-07T09:49:04.279Z,996.6
2018-07-07T09:50:04.278Z,996.63
2018-07-07T09:51:04.282Z,996.74
2018-07-07T09:52:04.289Z,996.78
2018-07-07T09:53:04.293Z,996.75
2018-07-07T09:54:04.306Z,996.74
2018-07-07T09:55:04.304Z,996.7
2018-07-07T09:56:04.321Z,996.69
2018-07-07T09:57:04.317Z,996.7
2018-07-07T09:58:04.321Z,996.7
2018-07-07T09:59:04.327Z,996.69
2018-07-07T10:00:04.333Z,996.57
2018-07-07T10:01:04.348Z,996.54
2018-07-07T10:02:04.347Z,996.53
2018-07-07T10:03:04.351Z,996.48
2018-07-07T10:04:04.357Z,996.46
2018-07-07T10:05:04.363Z,996.43
2018-07-07T10:06:04.372Z,996.42
2018-07-07T10:07:04.374Z,996.38
2018-07-07T10:08:04.392Z,996.44
2018-07-07T10:09:04.390Z,996.44
2018-07-07T10:10:04.399Z,996.45
2018-07-07T10:11:04.396Z,996.45
2018-07-07T10:12:04.400Z,996.45
2018-07-07T10:13:04.406Z,996.44
2018-07-07T10:14:04.411Z,996.42
2018-07-07T10:15:04.417Z,996.4
2018-07-07T10:16:04.422Z,996.53
2018-07-07T10:17:04.429Z,996.5
2018-07-07T10:18:04.434Z,996.55
2018-07-07T10:19:04.438Z,996.54
2018-07-07T10:20:04.452Z,996.55
2018-07-07T10:21:04.453Z,996.59
2018-07-07T10:22:04.456Z,996.57
2018-07-07T10:23:04.466Z,996.6
2018-07-07T10:54:36.059Z,996.4
2018-07-07T10:55:36.115Z,996.4
2018-07-07T10:56:36.041Z,996.29
2018-07-07T10:57:36.047Z,996.39
2018-07-07T10:58:36.045Z,996.39
2018-07-07T10:59:36.058Z,996.42
2018-07-07T11:00:36.050Z,996.4
2018-07-07T11:01:36.053Z,996.42
2018-07-07T11:02:36.124Z,996.42
2018-07-07T11:03:36.062Z,996.39
2018-07-07T11:04:36.069Z,996.39
2018-07-07T11:05:36.076Z,996.38
2018-07-07T11:06:36.080Z,996.33
2018-07-07T11:07:36.080Z,996.35
2018-07-07T11:08:36.085Z,996.28
2018-07-07T11:09:36.090Z,996.29
2018-07-07T11:10:36.115Z,996.29
2018-07-07T11:11:36.103Z,996.3
2018-07-07T11:12:36.106Z,996.3
2018-07-07T11:13:36.119Z,996.26
2018-07-07T11:14:36.114Z,996.2
2018-07-07T11:15:36.119Z,996.25
2018-07-07T11:16:36.125Z,996.3
2018-07-07T11:17:36.137Z,996.26
2018-07-07T11:18:36.139Z,996.25
2018-07-07T11:19:36.141Z,996.29
2018-07-07T11:20:36.143Z,996.27
2018-07-07T11:21:36.149Z,996.2
2018-07-07T11:22:36.167Z,996.12
2018-07-07T11:23:36.170Z,996.11
2018-07-07T11:24:36.167Z,996.15
2018-07-07T11:25:36.179Z,996.08
2018-07-07T11:26:36.175Z,996.2
2018-07-07T11:27:36.183Z,996.17
2018-07-07T11:28:36.188Z,996.29
2018-07-07T11:29:36.197Z,996.24
2018-07-07T11:30:36.202Z,996.21
2018-07-07T11:31:36.204Z,996.18
2018-07-07T11:32:36.206Z,996.13
2018-07-07T11:33:36.214Z,996.21
2018-07-07T11:34:36.230Z,996.2
2018-07-07T11:35:36.223Z,996.18
2018-07-07T11:36:36.447Z,996.26
2018-07-07T11:37:36.243Z,996.27
2018-07-07T11:38:36.247Z,996.3
2018-07-07T11:39:36.257Z,996.33
2018-07-07T11:40:36.256Z,996.27
2018-07-07T11:41:36.255Z,996.25
2018-07-07T11:42:36.262Z,996.3
2018-07-07T11:43:36.261Z,996.27
2018-07-07T11:44:36.279Z,996.27
2018-07-07T11:45:36.270Z,996.15
2018-07-07T11:46:36.286Z,996.1
2018-07-07T11:47:36.296Z,996.16
2018-07-07T11:48:36.293Z,996.22
2018-07-07T11:49:36.304Z,996.23
2018-07-07T11:50:36.376Z,996.21
2018-07-07T11:51:36.307Z,996.18
2018-07-07T11:52:36.310Z,996.21
2018-07-07T11:53:36.323Z,996.21
2018-07-07T11:54:36.325Z,996.14
2018-07-07T11:55:36.329Z,996.14
2018-07-07T11:56:36.341Z,996.1
2018-07-07T11:57:36.339Z,996.12
2018-07-07T11:58:36.343Z,996.13
2018-07-07T11:59:36.347Z,996.07
2018-07-07T12:00:36.355Z,996.05
2018-07-07T12:01:36.364Z,996.08
2018-07-07T12:02:36.380Z,996.08
2018-07-07T12:03:36.384Z,996.06
2018-07-07T12:04:36.592Z,996.09
2018-07-07T12:05:36.389Z,996.06
2018-07-07T12:06:36.393Z,996.07
2018-07-07T12:07:36.403Z,996.1
2018-07-07T12:08:36.396Z,996.09
2018-07-07T12:09:36.403Z,996.06
2018-07-07T12:10:36.403Z,996.07
2018-07-07T12:11:36.422Z,996.03
2018-07-07T12:12:36.422Z,995.98
2018-07-07T12:13:36.423Z,995.94
2018-07-07T12:14:36.440Z,995.9
2018-07-07T12:15:36.449Z,995.9
2018-07-07T12:16:36.452Z,995.86
2018-07-07T12:17:36.454Z,995.82
2018-07-07T12:18:36.451Z,995.83
2018-07-07T12:19:36.483Z,995.78
2018-07-07T12:20:36.464Z,995.79
2018-07-07T12:21:36.474Z,995.71
2018-07-07T12:22:36.475Z,995.74
2018-07-07T12:23:36.478Z,995.75
2018-07-07T12:24:36.484Z,995.77
2018-07-07T12:25:36.485Z,995.81
2018-07-07T12:26:36.499Z,995.77
2018-07-07T12:27:36.503Z,995.77
2018-07-07T12:28:36.501Z,995.76
2018-07-07T12:29:36.535Z,995.76
2018-07-07T12:30:36.524Z,995.74
2018-07-07T12:31:36.519Z,995.76
2018-07-07T12:32:36.524Z,995.76
2018-07-07T12:33:36.534Z,995.69
2018-07-07T12:34:36.536Z,995.76
2018-07-07T12:35:36.537Z,995.77
2018-07-07T12:36:36.565Z,995.79
2018-07-07T12:37:36.545Z,995.77
2018-07-07T12:38:36.552Z,995.79
2018-07-07T12:39:36.559Z,995.79
2018-07-07T12:40:36.681Z,995.75
2018-07-07T12:41:36.568Z,995.73
2018-07-07T12:42:36.572Z,995.75
2018-07-07T12:43:36.609Z,995.77
2018-07-07T12:44:36.629Z,995.76
2018-07-07T12:45:36.591Z,995.79
2018-07-07T12:46:36.593Z,995.68
2018-07-07T12:47:36.597Z,995.75
2018-07-07T12:48:36.600Z,995.75
2018-07-07T12:49:36.609Z,995.75
2018-07-07T12:50:36.613Z,995.8
2018-07-07T12:51:36.617Z,995.77
2018-07-07T12:52:36.633Z,995.72
2018-07-07T12:53:36.628Z,995.82
2018-07-07T12:54:36.633Z,995.81
2018-07-07T12:55:36.637Z,995.73
2018-07-07T12:56:36.645Z,995.71
2018-07-07T12:57:36.647Z,995.65
2018-07-07T12:58:36.657Z,995.65
2018-07-07T12:59:36.671Z,995.61
2018-07-07T13:00:36.670Z,995.62
2018-07-07T13:01:36.675Z,995.57
2018-07-07T13:02:36.729Z,995.57
2018-07-07T13:03:36.681Z,995.55
2018-07-07T13:04:36.687Z,995.58
2018-07-07T13:05:36.691Z,995.58
2018-07-07T13:06:36.694Z,995.54
2018-07-07T13:07:36.699Z,995.52
2018-07-07T13:08:36.705Z,995.52
2018-07-07T13:09:36.708Z,995.53
2018-07-07T13:10:36.865Z,995.55